sensor_id;sensor_type;location;lat;lon;timestamp;temperature;humidity
17813;DHT22;9030;50.792;8.320;2022-09-20T00:00:32;7.40;99.90
17813;DHT22;9030;50.792;8.320;2022-09-20T00:02:59;7.60;99.90
17813;DHT22;9030;50.792;8.320;2022-09-20T00:05:26;7.50;99.90
17813;DHT22;9030;50.792;8.320;2022-09-20T00:07:53;7.60;99.90
17813;DHT22;9030;50.792;8.320;2022-09-20T00:10:19;7.60;99.90
17813;DHT22;9030;50.792;8.320;2022-09-20T00:12:50;7.60;99.90
17813;DHT22;9030;50.792;8.320;2022-09-20T00:15:17;7.60;99.90
17813;DHT22;9030;50.792;8.320;2022-09-20T00:17:44;7.80;99.90
17813;DHT22;9030;50.792;8.320;2022-09-20T00:20:10;7.90;99.90
17813;DHT22;9030;50.792;8.320;2022-09-20T00:22:37;7.90;99.90
17813;DHT22;9030;50.792;8.320;2022-09-20T00:25:05;8.00;99.90
17813;DHT22;9030;50.792;8.320;2022-09-20T00:27:31;8.00;99.90
17813;DHT22;9030;50.792;8.320;2022-09-20T00:29:59;8.10;99.90
17813;DHT22;9030;50.792;8.320;2022-09-20T00:32:26;8.10;99.90
17813;DHT22;9030;50.792;8.320;2022-09-20T00:34:53;8.10;99.90
17813;DHT22;9030;50.792;8.320;2022-09-20T00:37:36;8.00;99.90
17813;DHT22;9030;50.792;8.320;2022-09-20T00:40:04;8.00;99.90
17813;DHT22;9030;50.792;8.320;2022-09-20T00:42:31;8.10;99.90
17813;DHT22;9030;50.792;8.320;2022-09-20T00:45:00;8.00;99.90
17813;DHT22;9030;50.792;8.320;2022-09-20T00:47:35;8.00;99.90
17813;DHT22;9030;50.792;8.320;2022-09-20T00:50:26;7.90;99.90
17813;DHT22;9030;50.792;8.320;2022-09-20T00:52:59;7.90;99.90
17813;DHT22;9030;50.792;8.320;2022-09-20T00:55:27;7.70;99.90
17813;DHT22;9030;50.792;8.320;2022-09-20T00:57:54;7.70;99.90
17813;DHT22;9030;50.792;8.320;2022-09-20T01:00:25;7.60;99.90
17813;DHT22;9030;50.792;8.320;2022-09-20T01:02:56;7.50;99.90
17813;DHT22;9030;50.792;8.320;2022-09-20T01:05:24;7.40;99.90
17813;DHT22;9030;50.792;8.320;2022-09-20T01:07:51;7.40;99.90
17813;DHT22;9030;50.792;8.320;2022-09-20T01:10:20;7.30;99.90
17813;DHT22;9030;50.792;8.320;2022-09-20T01:12:48;7.30;99.90
17813;DHT22;9030;50.792;8.320;2022-09-20T01:15:16;7.20;99.90
17813;DHT22;9030;50.792;8.320;2022-09-20T01:17:47;7.30;99.90
17813;DHT22;9030;50.792;8.320;2022-09-20T01:20:21;7.30;99.90
17813;DHT22;9030;50.792;8.320;2022-09-20T01:26:15;7.40;99.90
17813;DHT22;9030;50.792;8.320;2022-09-20T01:28:49;7.40;99.90
17813;DHT22;9030;50.792;8.320;2022-09-20T01:31:21;7.40;99.90
17813;DHT22;9030;50.792;8.320;2022-09-20T01:33:52;7.40;99.90
17813;DHT22;9030;50.792;8.320;2022-09-20T01:36:23;7.40;99.90
17813;DHT22;9030;50.792;8.320;2022-09-20T01:38:59;7.40;99.90
17813;DHT22;9030;50.792;8.320;2022-09-20T01:41:32;7.40;99.90
17813;DHT22;9030;50.792;8.320;2022-09-20T01:44:07;7.20;99.90
17813;DHT22;9030;50.792;8.320;2022-09-20T01:46:36;7.20;99.90
17813;DHT22;9030;50.792;8.320;2022-09-20T01:49:16;7.20;99.90
17813;DHT22;9030;50.792;8.320;2022-09-20T01:52:24;7.30;99.90
17813;DHT22;9030;50.792;8.320;2022-09-20T01:55:37;7.10;99.90
17813;DHT22;9030;50.792;8.320;2022-09-20T01:58:31;7.20;99.90
17813;DHT22;9030;50.792;8.320;2022-09-20T02:07:30;7.20;99.90
17813;DHT22;9030;50.792;8.320;2022-09-20T02:10:20;7.20;99.90
17813;DHT22;9030;50.792;8.320;2022-09-20T02:12:54;7.20;99.90
17813;DHT22;9030;50.792;8.320;2022-09-20T02:15:38;7.30;99.90
17813;DHT22;9030;50.792;8.320;2022-09-20T02:18:24;7.20;99.90
17813;DHT22;9030;50.792;8.320;2022-09-20T02:21:03;7.40;99.90
17813;DHT22;9030;50.792;8.320;2022-09-20T02:23:42;7.40;99.90
17813;DHT22;9030;50.792;8.320;2022-09-20T02:26:23;7.30;99.90
17813;DHT22;9030;50.792;8.320;2022-09-20T02:28:59;7.40;99.90
17813;DHT22;9030;50.792;8.320;2022-09-20T02:34:45;7.10;99.90
17813;DHT22;9030;50.792;8.320;2022-09-20T02:37:41;7.00;99.90
17813;DHT22;9030;50.792;8.320;2022-09-20T02:40:24;6.90;99.90
17813;DHT22;9030;50.792;8.320;2022-09-20T02:42:58;6.80;99.90
17813;DHT22;9030;50.792;8.320;2022-09-20T02:45:31;6.90;99.90
17813;DHT22;9030;50.792;8.320;2022-09-20T02:48:03;6.80;99.90
17813;DHT22;9030;50.792;8.320;2022-09-20T02:50:38;6.60;99.90
17813;DHT22;9030;50.792;8.320;2022-09-20T02:53:15;6.70;99.90
17813;DHT22;9030;50.792;8.320;2022-09-20T02:56:02;6.60;99.90
17813;DHT22;9030;50.792;8.320;2022-09-20T02:58:39;6.60;99.90
17813;DHT22;9030;50.792;8.320;2022-09-20T03:01:19;6.70;99.90
17813;DHT22;9030;50.792;8.320;2022-09-20T03:03:54;6.50;99.90
17813;DHT22;9030;50.792;8.320;2022-09-20T03:06:29;6.60;99.90
17813;DHT22;9030;50.792;8.320;2022-09-20T03:09:04;6.50;99.90
17813;DHT22;9030;50.792;8.320;2022-09-20T03:11:38;6.00;99.90
17813;DHT22;9030;50.792;8.320;2022-09-20T03:14:16;6.30;99.90
17813;DHT22;9030;50.792;8.320;2022-09-20T03:17:00;6.40;99.90
17813;DHT22;9030;50.792;8.320;2022-09-20T03:19:38;6.30;99.90
17813;DHT22;9030;50.792;8.320;2022-09-20T03:22:19;6.20;99.90
17813;DHT22;9030;50.792;8.320;2022-09-20T03:24:59;6.30;99.90
17813;DHT22;9030;50.792;8.320;2022-09-20T03:27:37;6.20;99.90
17813;DHT22;9030;50.792;8.320;2022-09-20T03:30:23;6.20;99.90
17813;DHT22;9030;50.792;8.320;2022-09-20T03:33:01;6.20;99.90
17813;DHT22;9030;50.792;8.320;2022-09-20T03:35:48;6.20;99.90
17813;DHT22;9030;50.792;8.320;2022-09-20T03:38:29;6.30;99.90
17813;DHT22;9030;50.792;8.320;2022-09-20T03:41:27;6.20;99.90
17813;DHT22;9030;50.792;8.320;2022-09-20T03:44:09;6.20;99.90
17813;DHT22;9030;50.792;8.320;2022-09-20T03:46:43;6.30;99.90
17813;DHT22;9030;50.792;8.320;2022-09-20T03:49:57;6.40;99.90
17813;DHT22;9030;50.792;8.320;2022-09-20T03:52:45;6.40;99.90
17813;DHT22;9030;50.792;8.320;2022-09-20T03:55:37;6.30;99.90
17813;DHT22;9030;50.792;8.320;2022-09-20T03:58:23;6.30;99.90
17813;DHT22;9030;50.792;8.320;2022-09-20T04:01:07;6.30;99.90
17813;DHT22;9030;50.792;8.320;2022-09-20T04:03:44;6.30;99.90
17813;DHT22;9030;50.792;8.320;2022-09-20T04:09:25;6.20;99.90
17813;DHT22;9030;50.792;8.320;2022-09-20T04:12:02;6.10;99.90
17813;DHT22;9030;50.792;8.320;2022-09-20T04:14:37;6.20;99.90
17813;DHT22;9030;50.792;8.320;2022-09-20T04:17:19;6.00;99.90
17813;DHT22;9030;50.792;8.320;2022-09-20T04:19:51;6.00;99.90
17813;DHT22;9030;50.792;8.320;2022-09-20T04:22:22;6.00;99.90
17813;DHT22;9030;50.792;8.320;2022-09-20T04:24:54;5.90;99.90
17813;DHT22;9030;50.792;8.320;2022-09-20T04:27:27;5.90;99.90
17813;DHT22;9030;50.792;8.320;2022-09-20T04:29:58;5.80;99.90
17813;DHT22;9030;50.792;8.320;2022-09-20T04:32:30;5.70;99.90
17813;DHT22;9030;50.792;8.320;2022-09-20T04:35:04;5.70;99.90
17813;DHT22;9030;50.792;8.320;2022-09-20T04:37:55;5.70;99.90
17813;DHT22;9030;50.792;8.320;2022-09-20T04:40:29;5.50;99.90
17813;DHT22;9030;50.792;8.320;2022-09-20T04:43:34;5.40;99.90
17813;DHT22;9030;50.792;8.320;2022-09-20T04:46:42;5.40;99.90
17813;DHT22;9030;50.792;8.320;2022-09-20T04:49:43;5.40;99.90
17813;DHT22;9030;50.792;8.320;2022-09-20T04:55:53;5.40;99.90
17813;DHT22;9030;50.792;8.320;2022-09-20T04:58:43;5.40;99.90
17813;DHT22;9030;50.792;8.320;2022-09-20T05:08:08;5.30;99.90
17813;DHT22;9030;50.792;8.320;2022-09-20T05:13:55;5.30;99.90
17813;DHT22;9030;50.792;8.320;2022-09-20T05:16:30;5.20;99.90
17813;DHT22;9030;50.792;8.320;2022-09-20T05:19:15;5.20;99.90
17813;DHT22;9030;50.792;8.320;2022-09-20T05:21:55;5.00;99.90
17813;DHT22;9030;50.792;8.320;2022-09-20T05:25:04;5.00;99.90
17813;DHT22;9030;50.792;8.320;2022-09-20T05:27:42;5.00;99.90
17813;DHT22;9030;50.792;8.320;2022-09-20T05:30:19;4.90;99.90
17813;DHT22;9030;50.792;8.320;2022-09-20T05:32:53;4.90;99.90
17813;DHT22;9030;50.792;8.320;2022-09-20T05:35:27;4.90;99.90
17813;DHT22;9030;50.792;8.320;2022-09-20T05:38:03;4.90;99.90
17813;DHT22;9030;50.792;8.320;2022-09-20T05:40:37;4.90;99.90
17813;DHT22;9030;50.792;8.320;2022-09-20T05:43:11;4.90;99.90
17813;DHT22;9030;50.792;8.320;2022-09-20T05:45:51;5.00;99.90
17813;DHT22;9030;50.792;8.320;2022-09-20T05:48:28;4.90;99.90
17813;DHT22;9030;50.792;8.320;2022-09-20T05:50:58;4.90;99.90
17813;DHT22;9030;50.792;8.320;2022-09-20T05:53:40;4.90;99.90
17813;DHT22;9030;50.792;8.320;2022-09-20T05:56:19;4.90;99.90
17813;DHT22;9030;50.792;8.320;2022-09-20T05:59:04;5.00;99.90
17813;DHT22;9030;50.792;8.320;2022-09-20T06:01:40;4.90;99.90
17813;DHT22;9030;50.792;8.320;2022-09-20T06:04:13;5.00;99.90
17813;DHT22;9030;50.792;8.320;2022-09-20T06:06:48;5.00;99.90
17813;DHT22;9030;50.792;8.320;2022-09-20T06:09:42;5.20;99.90
17813;DHT22;9030;50.792;8.320;2022-09-20T06:12:22;5.20;99.90
17813;DHT22;9030;50.792;8.320;2022-09-20T06:14:56;5.40;99.90
17813;DHT22;9030;50.792;8.320;2022-09-20T06:17:32;5.50;99.90
17813;DHT22;9030;50.792;8.320;2022-09-20T06:20:10;5.80;99.90
17813;DHT22;9030;50.792;8.320;2022-09-20T06:22:41;5.90;99.90
17813;DHT22;9030;50.792;8.320;2022-09-20T06:25:15;6.10;99.90
17813;DHT22;9030;50.792;8.320;2022-09-20T06:27:45;6.30;99.90
17813;DHT22;9030;50.792;8.320;2022-09-20T06:30:16;6.40;99.90
17813;DHT22;9030;50.792;8.320;2022-09-20T06:32:59;6.80;99.90
17813;DHT22;9030;50.792;8.320;2022-09-20T06:35:31;6.80;99.90
17813;DHT22;9030;50.792;8.320;2022-09-20T06:38:07;7.10;99.90
17813;DHT22;9030;50.792;8.320;2022-09-20T06:40:57;7.20;99.90
17813;DHT22;9030;50.792;8.320;2022-09-20T06:43:42;7.70;99.90
17813;DHT22;9030;50.792;8.320;2022-09-20T06:46:09;7.90;99.90
17813;DHT22;9030;50.792;8.320;2022-09-20T06:48:39;8.10;99.90
17813;DHT22;9030;50.792;8.320;2022-09-20T06:51:06;8.20;99.90
17813;DHT22;9030;50.792;8.320;2022-09-20T06:53:36;8.40;99.90
17813;DHT22;9030;50.792;8.320;2022-09-20T06:56:06;8.60;99.90
17813;DHT22;9030;50.792;8.320;2022-09-20T06:58:34;8.90;99.90
17813;DHT22;9030;50.792;8.320;2022-09-20T07:01:00;9.10;99.90
17813;DHT22;9030;50.792;8.320;2022-09-20T07:03:27;9.10;99.90
17813;DHT22;9030;50.792;8.320;2022-09-20T07:05:57;9.40;99.90
17813;DHT22;9030;50.792;8.320;2022-09-20T07:08:25;9.60;99.90
17813;DHT22;9030;50.792;8.320;2022-09-20T07:10:51;9.70;99.90
17813;DHT22;9030;50.792;8.320;2022-09-20T07:13:19;9.60;99.90
17813;DHT22;9030;50.792;8.320;2022-09-20T07:15:45;9.90;99.90
17813;DHT22;9030;50.792;8.320;2022-09-20T07:18:12;10.10;99.90
17813;DHT22;9030;50.792;8.320;2022-09-20T07:20:39;10.20;99.90
17813;DHT22;9030;50.792;8.320;2022-09-20T07:23:07;10.30;99.90
17813;DHT22;9030;50.792;8.320;2022-09-20T07:25:35;10.40;99.90
17813;DHT22;9030;50.792;8.320;2022-09-20T07:28:02;10.50;99.90
17813;DHT22;9030;50.792;8.320;2022-09-20T07:30:28;10.60;99.90
17813;DHT22;9030;50.792;8.320;2022-09-20T07:32:55;10.80;99.90
17813;DHT22;9030;50.792;8.320;2022-09-20T07:35:22;10.60;99.90
17813;DHT22;9030;50.792;8.320;2022-09-20T07:37:55;10.70;99.90
17813;DHT22;9030;50.792;8.320;2022-09-20T07:40:23;11.10;99.90
17813;DHT22;9030;50.792;8.320;2022-09-20T07:42:51;11.20;99.90
17813;DHT22;9030;50.792;8.320;2022-09-20T07:45:18;11.30;99.90
17813;DHT22;9030;50.792;8.320;2022-09-20T07:47:45;11.30;99.90
17813;DHT22;9030;50.792;8.320;2022-09-20T07:50:12;11.60;99.90
17813;DHT22;9030;50.792;8.320;2022-09-20T07:52:38;11.90;99.90
17813;DHT22;9030;50.792;8.320;2022-09-20T07:55:06;12.10;99.90
17813;DHT22;9030;50.792;8.320;2022-09-20T07:57:35;12.20;99.90
17813;DHT22;9030;50.792;8.320;2022-09-20T08:00:04;12.30;99.90
17813;DHT22;9030;50.792;8.320;2022-09-20T08:02:31;12.50;99.90
17813;DHT22;9030;50.792;8.320;2022-09-20T08:04:57;12.50;99.90
17813;DHT22;9030;50.792;8.320;2022-09-20T08:07:24;12.60;99.90
17813;DHT22;9030;50.792;8.320;2022-09-20T08:09:51;12.70;99.90
17813;DHT22;9030;50.792;8.320;2022-09-20T08:12:18;12.30;99.90
17813;DHT22;9030;50.792;8.320;2022-09-20T08:14:46;11.90;99.90
17813;DHT22;9030;50.792;8.320;2022-09-20T08:17:13;11.60;99.90
17813;DHT22;9030;50.792;8.320;2022-09-20T08:19:39;11.60;99.90
17813;DHT22;9030;50.792;8.320;2022-09-20T08:22:07;11.50;99.90
17813;DHT22;9030;50.792;8.320;2022-09-20T08:24:35;11.80;99.90
17813;DHT22;9030;50.792;8.320;2022-09-20T08:27:01;11.60;99.90
17813;DHT22;9030;50.792;8.320;2022-09-20T08:29:28;11.60;99.90
17813;DHT22;9030;50.792;8.320;2022-09-20T08:31:56;11.80;99.90
17813;DHT22;9030;50.792;8.320;2022-09-20T08:34:25;12.30;99.90
17813;DHT22;9030;50.792;8.320;2022-09-20T08:36:52;13.10;99.90
17813;DHT22;9030;50.792;8.320;2022-09-20T08:39:21;13.60;99.90
17813;DHT22;9030;50.792;8.320;2022-09-20T08:41:52;12.50;99.90
17813;DHT22;9030;50.792;8.320;2022-09-20T08:44:23;11.70;99.90
17813;DHT22;9030;50.792;8.320;2022-09-20T08:46:59;11.60;99.90
17813;DHT22;9030;50.792;8.320;2022-09-20T08:49:29;11.80;99.90
17813;DHT22;9030;50.792;8.320;2022-09-20T08:51:57;12.00;99.90
17813;DHT22;9030;50.792;8.320;2022-09-20T08:54:25;12.00;99.90
17813;DHT22;9030;50.792;8.320;2022-09-20T08:56:52;11.90;99.90
17813;DHT22;9030;50.792;8.320;2022-09-20T08:59:21;11.50;99.90
17813;DHT22;9030;50.792;8.320;2022-09-20T09:01:52;11.70;99.90
17813;DHT22;9030;50.792;8.320;2022-09-20T09:04:21;12.50;99.90
17813;DHT22;9030;50.792;8.320;2022-09-20T09:06:50;12.70;99.90
17813;DHT22;9030;50.792;8.320;2022-09-20T09:09:18;12.70;99.90
17813;DHT22;9030;50.792;8.320;2022-09-20T09:11:47;13.80;99.90
17813;DHT22;9030;50.792;8.320;2022-09-20T09:14:24;13.90;99.90
17813;DHT22;9030;50.792;8.320;2022-09-20T09:17:10;13.00;99.90
17813;DHT22;9030;50.792;8.320;2022-09-20T09:19:46;12.50;99.90
17813;DHT22;9030;50.792;8.320;2022-09-20T09:22:23;12.20;99.90
17813;DHT22;9030;50.792;8.320;2022-09-20T09:25:22;12.00;99.90
17813;DHT22;9030;50.792;8.320;2022-09-20T09:27:55;11.90;99.90
17813;DHT22;9030;50.792;8.320;2022-09-20T09:30:24;12.50;99.90
17813;DHT22;9030;50.792;8.320;2022-09-20T09:32:52;12.60;99.90
17813;DHT22;9030;50.792;8.320;2022-09-20T09:35:28;12.80;99.90
17813;DHT22;9030;50.792;8.320;2022-09-20T09:37:57;13.10;99.90
17813;DHT22;9030;50.792;8.320;2022-09-20T09:40:26;12.70;99.90
17813;DHT22;9030;50.792;8.320;2022-09-20T09:42:55;12.60;99.90
17813;DHT22;9030;50.792;8.320;2022-09-20T09:45:30;12.10;99.90
17813;DHT22;9030;50.792;8.320;2022-09-20T09:47:59;11.90;99.90
17813;DHT22;9030;50.792;8.320;2022-09-20T09:50:30;11.90;99.90
17813;DHT22;9030;50.792;8.320;2022-09-20T09:53:05;11.90;99.90
17813;DHT22;9030;50.792;8.320;2022-09-20T09:55:47;11.80;99.90
17813;DHT22;9030;50.792;8.320;2022-09-20T09:58:24;13.00;99.90
17813;DHT22;9030;50.792;8.320;2022-09-20T10:00:53;12.40;99.90
17813;DHT22;9030;50.792;8.320;2022-09-20T10:03:42;12.80;99.90
17813;DHT22;9030;50.792;8.320;2022-09-20T10:06:20;12.90;99.90
17813;DHT22;9030;50.792;8.320;2022-09-20T10:09:00;14.10;99.90
17813;DHT22;9030;50.792;8.320;2022-09-20T10:11:35;14.50;99.90
17813;DHT22;9030;50.792;8.320;2022-09-20T10:14:16;14.80;99.90
17813;DHT22;9030;50.792;8.320;2022-09-20T10:16:59;13.80;99.90
17813;DHT22;9030;50.792;8.320;2022-09-20T10:19:42;13.40;99.90
17813;DHT22;9030;50.792;8.320;2022-09-20T10:22:18;13.10;99.90
17813;DHT22;9030;50.792;8.320;2022-09-20T10:24:55;13.60;99.90
17813;DHT22;9030;50.792;8.320;2022-09-20T10:27:38;13.30;99.90
17813;DHT22;9030;50.792;8.320;2022-09-20T10:30:10;12.90;99.90
17813;DHT22;9030;50.792;8.320;2022-09-20T10:32:57;12.90;99.90
17813;DHT22;9030;50.792;8.320;2022-09-20T10:35:31;13.00;99.90
17813;DHT22;9030;50.792;8.320;2022-09-20T10:38:17;12.80;99.90
17813;DHT22;9030;50.792;8.320;2022-09-20T10:41:12;12.90;99.90
17813;DHT22;9030;50.792;8.320;2022-09-20T10:44:20;13.00;99.90
17813;DHT22;9030;50.792;8.320;2022-09-20T10:46:54;12.90;99.90
17813;DHT22;9030;50.792;8.320;2022-09-20T10:49:29;13.50;99.90
17813;DHT22;9030;50.792;8.320;2022-09-20T10:52:09;14.10;99.90
17813;DHT22;9030;50.792;8.320;2022-09-20T10:54:52;14.60;99.90
17813;DHT22;9030;50.792;8.320;2022-09-20T10:57:36;14.90;99.90
17813;DHT22;9030;50.792;8.320;2022-09-20T11:00:17;14.60;99.90
17813;DHT22;9030;50.792;8.320;2022-09-20T11:02:52;14.80;99.90
17813;DHT22;9030;50.792;8.320;2022-09-20T11:05:29;15.20;99.90
17813;DHT22;9030;50.792;8.320;2022-09-20T11:08:05;15.70;99.90
17813;DHT22;9030;50.792;8.320;2022-09-20T11:10:36;14.70;99.90
17813;DHT22;9030;50.792;8.320;2022-09-20T11:13:09;14.30;99.90
17813;DHT22;9030;50.792;8.320;2022-09-20T11:15:43;14.30;99.90
17813;DHT22;9030;50.792;8.320;2022-09-20T11:18:14;14.10;99.90
17813;DHT22;9030;50.792;8.320;2022-09-20T11:20:47;14.70;99.90
17813;DHT22;9030;50.792;8.320;2022-09-20T11:23:20;14.30;99.90
17813;DHT22;9030;50.792;8.320;2022-09-20T11:25:52;13.70;99.90
17813;DHT22;9030;50.792;8.320;2022-09-20T11:28:24;13.40;99.90
17813;DHT22;9030;50.792;8.320;2022-09-20T11:30:56;13.90;99.90
17813;DHT22;9030;50.792;8.320;2022-09-20T11:33:27;14.60;99.90
17813;DHT22;9030;50.792;8.320;2022-09-20T11:35:57;14.50;99.90
17813;DHT22;9030;50.792;8.320;2022-09-20T11:38:29;14.90;99.90
17813;DHT22;9030;50.792;8.320;2022-09-20T11:41:03;15.00;99.90
17813;DHT22;9030;50.792;8.320;2022-09-20T11:43:31;15.50;99.90
17813;DHT22;9030;50.792;8.320;2022-09-20T11:46:01;16.30;99.90
17813;DHT22;9030;50.792;8.320;2022-09-20T11:48:31;15.70;99.90
17813;DHT22;9030;50.792;8.320;2022-09-20T11:51:27;15.50;99.90
17813;DHT22;9030;50.792;8.320;2022-09-20T11:54:10;15.70;99.90
17813;DHT22;9030;50.792;8.320;2022-09-20T11:56:49;15.40;99.90
17813;DHT22;9030;50.792;8.320;2022-09-20T11:59:26;15.70;99.90
17813;DHT22;9030;50.792;8.320;2022-09-20T12:01:56;15.60;99.90
17813;DHT22;9030;50.792;8.320;2022-09-20T12:04:25;15.40;99.90
17813;DHT22;9030;50.792;8.320;2022-09-20T12:07:00;15.20;99.90
17813;DHT22;9030;50.792;8.320;2022-09-20T12:09:30;15.10;99.90
17813;DHT22;9030;50.792;8.320;2022-09-20T12:12:03;15.20;99.90
17813;DHT22;9030;50.792;8.320;2022-09-20T12:14:38;15.90;99.90
17813;DHT22;9030;50.792;8.320;2022-09-20T12:21:04;16.20;99.90
17813;DHT22;9030;50.792;8.320;2022-09-20T12:23:45;16.80;99.90
17813;DHT22;9030;50.792;8.320;2022-09-20T12:32:49;15.30;99.90
17813;DHT22;9030;50.792;8.320;2022-09-20T12:38:37;14.80;99.90
17813;DHT22;9030;50.792;8.320;2022-09-20T12:41:09;14.80;99.90
17813;DHT22;9030;50.792;8.320;2022-09-20T12:43:47;14.80;99.90
17813;DHT22;9030;50.792;8.320;2022-09-20T12:46:24;14.40;99.90
17813;DHT22;9030;50.792;8.320;2022-09-20T12:52:36;14.30;99.90
17813;DHT22;9030;50.792;8.320;2022-09-20T12:55:38;14.50;99.90
17813;DHT22;9030;50.792;8.320;2022-09-20T12:58:32;15.10;99.90
17813;DHT22;9030;50.792;8.320;2022-09-20T13:01:29;14.90;99.90
17813;DHT22;9030;50.792;8.320;2022-09-20T13:04:39;15.00;99.90
17813;DHT22;9030;50.792;8.320;2022-09-20T13:07:33;14.80;99.90
17813;DHT22;9030;50.792;8.320;2022-09-20T13:10:04;14.70;99.90
17813;DHT22;9030;50.792;8.320;2022-09-20T13:12:41;14.70;99.90
17813;DHT22;9030;50.792;8.320;2022-09-20T13:15:16;14.50;99.90
17813;DHT22;9030;50.792;8.320;2022-09-20T13:17:45;14.80;99.90
17813;DHT22;9030;50.792;8.320;2022-09-20T13:20:18;14.90;99.90
17813;DHT22;9030;50.792;8.320;2022-09-20T13:22:46;15.20;99.90
17813;DHT22;9030;50.792;8.320;2022-09-20T13:25:14;15.00;99.90
17813;DHT22;9030;50.792;8.320;2022-09-20T13:27:47;14.70;99.90
17813;DHT22;9030;50.792;8.320;2022-09-20T13:30:18;14.90;99.90
17813;DHT22;9030;50.792;8.320;2022-09-20T13:32:45;14.70;99.90
17813;DHT22;9030;50.792;8.320;2022-09-20T13:35:14;14.80;99.90
17813;DHT22;9030;50.792;8.320;2022-09-20T13:37:49;14.90;99.90
17813;DHT22;9030;50.792;8.320;2022-09-20T13:40:18;15.00;99.90
17813;DHT22;9030;50.792;8.320;2022-09-20T13:42:46;15.40;99.90
17813;DHT22;9030;50.792;8.320;2022-09-20T13:45:14;15.50;99.90
17813;DHT22;9030;50.792;8.320;2022-09-20T13:47:43;15.20;99.90
17813;DHT22;9030;50.792;8.320;2022-09-20T13:50:16;14.90;99.90
17813;DHT22;9030;50.792;8.320;2022-09-20T13:52:47;15.10;99.90
17813;DHT22;9030;50.792;8.320;2022-09-20T13:55:25;14.80;99.90
17813;DHT22;9030;50.792;8.320;2022-09-20T13:57:56;14.90;99.90
17813;DHT22;9030;50.792;8.320;2022-09-20T14:00:24;14.40;99.90
17813;DHT22;9030;50.792;8.320;2022-09-20T14:02:51;14.30;99.90
17813;DHT22;9030;50.792;8.320;2022-09-20T14:05:21;14.40;99.90
17813;DHT22;9030;50.792;8.320;2022-09-20T14:07:50;13.90;99.90
17813;DHT22;9030;50.792;8.320;2022-09-20T14:10:29;13.90;99.90
17813;DHT22;9030;50.792;8.320;2022-09-20T14:12:58;13.90;99.90
17813;DHT22;9030;50.792;8.320;2022-09-20T14:15:31;14.00;99.90
17813;DHT22;9030;50.792;8.320;2022-09-20T14:18:00;13.90;99.90
17813;DHT22;9030;50.792;8.320;2022-09-20T14:20:29;14.30;99.90
17813;DHT22;9030;50.792;8.320;2022-09-20T14:22:56;14.80;99.90
17813;DHT22;9030;50.792;8.320;2022-09-20T14:25:24;15.00;99.90
17813;DHT22;9030;50.792;8.320;2022-09-20T14:28:16;15.00;99.90
17813;DHT22;9030;50.792;8.320;2022-09-20T14:30:44;14.80;99.90
17813;DHT22;9030;50.792;8.320;2022-09-20T14:33:15;14.60;99.90
17813;DHT22;9030;50.792;8.320;2022-09-20T14:35:47;14.70;99.90
17813;DHT22;9030;50.792;8.320;2022-09-20T14:38:15;14.70;99.90
17813;DHT22;9030;50.792;8.320;2022-09-20T14:40:44;14.90;99.90
17813;DHT22;9030;50.792;8.320;2022-09-20T14:43:24;14.50;99.90
17813;DHT22;9030;50.792;8.320;2022-09-20T14:45:54;14.60;99.90
17813;DHT22;9030;50.792;8.320;2022-09-20T14:48:34;14.60;99.90
17813;DHT22;9030;50.792;8.320;2022-09-20T14:51:20;14.50;99.90
17813;DHT22;9030;50.792;8.320;2022-09-20T14:53:51;14.30;99.90
17813;DHT22;9030;50.792;8.320;2022-09-20T14:56:31;14.30;99.90
17813;DHT22;9030;50.792;8.320;2022-09-20T14:59:21;14.20;99.90
17813;DHT22;9030;50.792;8.320;2022-09-20T15:02:01;14.40;99.90
17813;DHT22;9030;50.792;8.320;2022-09-20T15:04:30;14.40;99.90
17813;DHT22;9030;50.792;8.320;2022-09-20T15:07:00;14.30;99.90
17813;DHT22;9030;50.792;8.320;2022-09-20T15:09:28;14.30;99.90
17813;DHT22;9030;50.792;8.320;2022-09-20T15:11:59;14.30;99.90
17813;DHT22;9030;50.792;8.320;2022-09-20T15:14:27;14.20;99.90
17813;DHT22;9030;50.792;8.320;2022-09-20T15:16:54;14.00;99.90
17813;DHT22;9030;50.792;8.320;2022-09-20T15:19:21;14.00;99.90
17813;DHT22;9030;50.792;8.320;2022-09-20T15:21:47;13.90;99.90
17813;DHT22;9030;50.792;8.320;2022-09-20T15:24:14;14.00;99.90
17813;DHT22;9030;50.792;8.320;2022-09-20T15:26:42;14.00;99.90
17813;DHT22;9030;50.792;8.320;2022-09-20T15:29:13;13.90;99.90
17813;DHT22;9030;50.792;8.320;2022-09-20T15:31:41;13.90;99.90
17813;DHT22;9030;50.792;8.320;2022-09-20T15:34:08;13.90;99.90
17813;DHT22;9030;50.792;8.320;2022-09-20T15:36:36;13.80;99.90
17813;DHT22;9030;50.792;8.320;2022-09-20T15:39:03;13.70;99.90
17813;DHT22;9030;50.792;8.320;2022-09-20T15:41:29;13.70;99.90
17813;DHT22;9030;50.792;8.320;2022-09-20T15:43:56;13.70;99.90
17813;DHT22;9030;50.792;8.320;2022-09-20T15:46:24;14.00;99.90
17813;DHT22;9030;50.792;8.320;2022-09-20T15:48:53;13.80;99.90
17813;DHT22;9030;50.792;8.320;2022-09-20T15:51:20;13.80;99.90
17813;DHT22;9030;50.792;8.320;2022-09-20T15:53:54;13.60;99.90
17813;DHT22;9030;50.792;8.320;2022-09-20T15:56:23;13.50;99.90
17813;DHT22;9030;50.792;8.320;2022-09-20T15:58:52;13.40;99.90
17813;DHT22;9030;50.792;8.320;2022-09-20T16:01:24;13.40;99.90
17813;DHT22;9030;50.792;8.320;2022-09-20T16:03:52;13.20;99.90
17813;DHT22;9030;50.792;8.320;2022-09-20T16:06:20;13.10;99.90
17813;DHT22;9030;50.792;8.320;2022-09-20T16:08:47;12.90;99.90
17813;DHT22;9030;50.792;8.320;2022-09-20T16:11:15;12.70;99.90
17813;DHT22;9030;50.792;8.320;2022-09-20T16:13:42;12.60;99.90
17813;DHT22;9030;50.792;8.320;2022-09-20T16:16:10;12.50;99.90
17813;DHT22;9030;50.792;8.320;2022-09-20T16:18:40;12.60;99.90
17813;DHT22;9030;50.792;8.320;2022-09-20T16:21:25;12.70;99.90
17813;DHT22;9030;50.792;8.320;2022-09-20T16:23:54;12.60;99.90
17813;DHT22;9030;50.792;8.320;2022-09-20T16:26:23;12.50;99.90
17813;DHT22;9030;50.792;8.320;2022-09-20T16:28:50;12.50;99.90
17813;DHT22;9030;50.792;8.320;2022-09-20T16:31:29;12.40;99.90
17813;DHT22;9030;50.792;8.320;2022-09-20T16:33:57;12.40;99.90
17813;DHT22;9030;50.792;8.320;2022-09-20T16:36:25;12.40;99.90
17813;DHT22;9030;50.792;8.320;2022-09-20T16:38:52;12.40;99.90
17813;DHT22;9030;50.792;8.320;2022-09-20T16:41:19;12.20;99.90
17813;DHT22;9030;50.792;8.320;2022-09-20T16:43:47;12.00;99.90
17813;DHT22;9030;50.792;8.320;2022-09-20T16:46:14;11.90;99.90
17813;DHT22;9030;50.792;8.320;2022-09-20T16:48:41;11.70;99.90
17813;DHT22;9030;50.792;8.320;2022-09-20T16:51:08;11.40;99.90
17813;DHT22;9030;50.792;8.320;2022-09-20T16:53:36;11.30;99.90
17813;DHT22;9030;50.792;8.320;2022-09-20T16:56:02;11.10;99.90
17813;DHT22;9030;50.792;8.320;2022-09-20T16:58:32;10.90;99.90
17813;DHT22;9030;50.792;8.320;2022-09-20T17:01:04;10.70;99.90
17813;DHT22;9030;50.792;8.320;2022-09-20T17:03:31;10.50;99.90
17813;DHT22;9030;50.792;8.320;2022-09-20T17:06:02;10.40;99.90
17813;DHT22;9030;50.792;8.320;2022-09-20T17:08:29;10.40;99.90
17813;DHT22;9030;50.792;8.320;2022-09-20T17:11:05;10.30;99.90
17813;DHT22;9030;50.792;8.320;2022-09-20T17:13:34;10.20;99.90
17813;DHT22;9030;50.792;8.320;2022-09-20T17:16:04;10.10;99.90
17813;DHT22;9030;50.792;8.320;2022-09-20T17:18:31;10.10;99.90
17813;DHT22;9030;50.792;8.320;2022-09-20T17:21:02;9.90;99.90
17813;DHT22;9030;50.792;8.320;2022-09-20T17:23:30;9.70;99.90